Time;durP1;ratioP1;P1;durP2;ratioP2;P2;SDS_P1;SDS_P2;PMS_P1;PMS_P2;Temp;Humidity;BMP_temperature;BMP_pressure;BME280_temperature;BME280_humidity;BME280_pressure;Samples;Min_cycle;Max_cycle;Signal;HPM_P1;HPM_P2
2022/07/28 00:02:22;;;;;;;14.57;13.32;;;;;;;21.67;72.52;92714.50;5085742;28;21343;-72
2022/07/28 00:04:47;;;;;;;15.13;13.77;;;;;;;21.82;71.81;92750.97;5071710;28;20199;-72
2022/07/28 00:07:13;;;;;;;16.52;13.00;;;;;;;21.90;69.92;92746.59;5071286;28;20226;-72
2022/07/28 00:09:38;;;;;;;18.80;13.27;;;;;;;22.18;68.73;92763.97;5070264;28;20204;-72
2022/07/28 00:12:04;;;;;;;13.73;12.43;;;;;;;21.79;75.43;92766.84;5072470;28;20282;-73
2022/07/28 00:14:30;;;;;;;15.88;13.90;;;;;;;21.28;82.38;92783.72;5090326;28;20192;-72
2022/07/28 00:16:55;;;;;;;58.92;54.83;;;;;;;20.79;87.85;92761.88;5089930;28;20193;-72
2022/07/28 00:19:20;;;;;;;18.98;14.57;;;;;;;21.03;90.28;92782.31;5089761;28;20176;-73
2022/07/28 00:21:46;;;;;;;18.08;14.55;;;;;;;20.82;91.11;92773.69;5091188;28;20185;-73
2022/07/28 00:24:11;;;;;;;18.17;14.95;;;;;;;20.94;90.64;92774.44;5090046;28;20217;-72
2022/07/28 00:26:37;;;;;;;16.55;14.63;;;;;;;20.86;91.68;92758.66;5091088;28;20194;-72
2022/07/28 00:29:03;;;;;;;15.90;14.40;;;;;;;20.90;90.17;92772.78;5090372;28;20243;-74
2022/07/28 00:31:29;;;;;;;16.43;14.83;;;;;;;20.78;91.68;92775.50;5090325;28;20216;-73
2022/07/28 00:33:54;;;;;;;17.42;15.38;;;;;;;20.50;94.44;92733.78;5089980;28;20310;-71
2022/07/28 00:36:19;;;;;;;16.27;14.70;;;;;;;20.51;95.44;92761.84;5090757;28;20181;-72
2022/07/28 00:38:45;;;;;;;17.13;15.43;;;;;;;20.42;98.31;92771.06;5089096;28;20291;-73
2022/07/28 00:41:11;;;;;;;15.70;14.15;;;;;;;20.37;96.09;92748.16;5089964;28;20420;-72
2022/07/28 00:43:38;;;;;;;16.40;14.80;;;;;;;20.56;95.43;92744.94;5089589;28;20227;-73
2022/07/28 00:46:04;;;;;;;16.77;15.27;;;;;;;20.43;94.78;92754.81;5088498;28;20192;-71
2022/07/28 00:48:29;;;;;;;15.93;13.52;;;;;;;20.37;94.90;92750.06;5089670;28;20227;-72
2022/07/28 00:50:54;;;;;;;14.50;13.25;;;;;;;20.19;95.53;92749.53;5088329;28;20215;-73
2022/07/28 00:53:21;;;;;;;15.90;14.40;;;;;;;20.27;97.74;92763.75;5088985;28;20225;-72
2022/07/28 00:55:47;;;;;;;15.98;14.38;;;;;;;20.15;97.88;92753.97;5090569;28;20259;-73
2022/07/28 00:58:13;;;;;;;16.52;15.05;;;;;;;20.07;98.10;92789.28;5089209;28;20806;-72
2022/07/28 01:00:38;;;;;;;15.05;13.65;;;;;;;19.93;98.55;92788.84;5089926;28;20192;-73
2022/07/28 01:03:05;;;;;;;16.40;14.80;;;;;;;20.05;98.63;92806.59;5089765;28;20232;-71
2022/07/28 01:05:48;;;;;;;17.27;14.75;;;;;;;20.16;98.57;92808.53;5090216;28;20191;-73
2022/07/28 01:08:26;;;;;;;15.52;14.00;;;;;;;19.83;97.71;92809.72;5088175;28;20227;-73
2022/07/28 01:11:02;;;;;;;15.23;13.63;;;;;;;20.14;98.55;92797.47;5090004;28;20238;-72
2022/07/28 01:13:37;;;;;;;16.10;14.60;;;;;;;19.94;100.00;92785.06;5089341;28;20230;-72
2022/07/28 01:16:05;;;;;;;15.60;14.10;;;;;;;19.73;100.00;92779.13;5089569;28;20183;-71
2022/07/28 01:18:56;;;;;;;16.97;14.80;;;;;;;19.43;100.00;92790.97;5089485;28;20219;-72
2022/07/28 01:21:31;;;;;;;15.70;14.20;;;;;;;19.72;100.00;92787.41;5081623;28;20223;-73
2022/07/28 01:24:47;;;;;;;15.80;14.30;;;;;;;19.63;100.00;92749.59;5088609;28;20223;-73
2022/07/28 01:27:33;;;;;;;16.13;13.50;;;;;;;19.89;100.00;92773.94;5058737;28;20649;-72
2022/07/28 01:30:15;;;;;;;16.00;14.50;;;;;;;19.96;100.00;92774.13;5064473;28;20296;-73
2022/07/28 01:32:47;;;;;;;15.90;14.40;;;;;;;19.86;100.00;92756.81;5089736;28;20263;-73
2022/07/28 01:35:19;;;;;;;16.40;14.80;;;;;;;19.78;100.00;92751.63;5090929;28;20218;-73
2022/07/28 01:37:48;;;;;;;16.20;14.57;;;;;;;20.01;100.00;92764.09;5089404;28;20226;-73
2022/07/28 01:40:21;;;;;;;16.40;13.83;;;;;;;20.04;99.90;92758.13;5089786;28;20184;-73
2022/07/28 01:42:50;;;;;;;16.07;14.57;;;;;;;19.81;100.00;92741.16;5089692;28;20318;-72
2022/07/28 01:45:18;;;;;;;17.03;15.43;;;;;;;20.11;100.00;92761.00;5088501;28;20192;-73
2022/07/28 01:47:45;;;;;;;18.10;13.55;;;;;;;19.76;100.00;92762.56;5089093;28;20241;-72
2022/07/28 01:50:13;;;;;;;15.57;14.17;;;;;;;19.90;100.00;92756.91;5088211;28;20187;-73
2022/07/28 01:52:41;;;;;;;16.40;14.70;;;;;;;19.96;100.00;92766.19;5081702;28;20430;-72
2022/07/28 01:55:08;;;;;;;15.98;14.35;;;;;;;20.00;100.00;92773.16;5067881;28;20170;-73
2022/07/28 01:57:36;;;;;;;15.13;13.67;;;;;;;20.07;100.00;92764.63;5069131;28;20254;-72
2022/07/28 02:00:03;;;;;;;17.10;15.67;;;;;;;20.19;100.00;92770.75;5068736;28;21194;-72
2022/07/28 02:02:30;;;;;;;16.53;15.03;;;;;;;19.97;100.00;92763.22;5073784;28;20305;-72
2022/07/28 02:04:58;;;;;;;17.97;15.40;;;;;;;20.07;100.00;92775.25;5089162;28;20199;-71
2022/07/28 02:07:25;;;;;;;14.87;13.40;;;;;;;20.14;100.00;92778.16;5089558;28;20222;-72
2022/07/28 02:09:53;;;;;;;16.27;14.77;;;;;;;19.71;100.00;92773.38;5087014;28;20259;-71
2022/07/28 02:12:20;;;;;;;16.13;14.67;;;;;;;19.66;100.00;92778.13;5088767;28;20226;-72
2022/07/28 02:14:49;;;;;;;16.87;15.37;;;;;;;19.78;100.00;92768.28;5088977;28;20190;-71
2022/07/28 02:17:19;;;;;;;16.10;14.70;;;;;;;19.98;100.00;92778.03;5090145;28;20229;-73
2022/07/28 02:19:47;;;;;;;16.37;14.87;;;;;;;19.87;100.00;92741.69;5088224;28;20191;-72
2022/07/28 02:22:15;;;;;;;16.17;14.67;;;;;;;20.08;100.00;92776.78;5086953;28;20241;-72
2022/07/28 02:24:43;;;;;;;14.30;13.00;;;;;;;20.07;100.00;92785.84;5087297;28;20182;-72
2022/07/28 02:27:16;;;;;;;16.03;14.53;;;;;;;19.99;100.00;92770.81;5088389;28;20249;-71
2022/07/28 02:29:48;;;;;;;15.97;14.33;;;;;;;19.94;100.00;92786.94;5087866;28;20245;-72
2022/07/28 02:32:18;;;;;;;16.37;14.30;;;;;;;19.89;100.00;92790.59;5089182;28;20929;-73
2022/07/28 02:34:48;;;;;;;16.60;14.90;;;;;;;19.89;100.00;92782.63;5092614;28;20192;-71
2022/07/28 02:37:16;;;;;;;15.77;14.33;;;;;;;20.14;100.00;92786.13;5092720;28;20235;-73
2022/07/28 02:39:45;;;;;;;14.43;13.13;;;;;;;19.92;99.05;92781.22;5091638;28;20200;-72
2022/07/28 02:42:21;;;;;;;16.10;14.57;;;;;;;19.91;99.70;92783.09;5091857;28;20239;-73
2022/07/28 02:44:57;;;;;;;15.53;14.23;;;;;;;19.75;99.88;92776.88;5092247;28;20199;-72
2022/07/28 02:47:26;;;;;;;14.27;12.97;;;;;;;19.98;99.79;92793.94;5090712;28;20359;-72
2022/07/28 02:49:54;;;;;;;15.07;13.87;;;;;;;19.82;100.00;92771.03;5092350;28;20210;-72
2022/07/28 02:52:22;;;;;;;15.80;14.33;;;;;;;19.87;100.00;92789.38;5091294;28;20227;-72
2022/07/28 02:54:50;;;;;;;14.50;13.27;;;;;;;19.57;100.00;92778.19;5092663;28;20198;-72
2022/07/28 02:57:17;;;;;;;14.73;13.43;;;;;;;19.70;100.00;92795.66;5092463;28;20228;-72
2022/07/28 02:59:43;;;;;;;15.53;14.03;;;;;;;19.69;100.00;92803.94;5089957;28;20260;-73
2022/07/28 03:02:09;;;;;;;15.83;14.53;;;;;;;19.53;100.00;92787.13;5092594;28;20242;-73
2022/07/28 03:07:20;;;;;;;14.47;13.17;;;;;;;19.38;100.00;92804.41;5091620;28;20236;-72
2022/07/28 03:09:47;;;;;;;15.43;13.93;;;;;;;19.48;100.00;92811.97;5092028;28;20206;-73
2022/07/28 03:12:13;;;;;;;16.50;14.13;;;;;;;19.79;100.00;92817.53;5091682;28;20230;-72
2022/07/28 03:14:39;;;;;;;14.57;13.37;;;;;;;19.53;100.00;92810.97;5091975;28;20193;-72
2022/07/28 03:17:05;;;;;;;15.43;14.03;;;;;;;19.43;100.00;92801.56;5091793;28;20201;-72
2022/07/28 03:19:30;;;;;;;15.13;13.83;;;;;;;19.31;100.00;92801.53;5092019;28;20835;-72
2022/07/28 03:21:56;;;;;;;16.27;14.87;;;;;;;19.43;100.00;92801.56;5091450;28;20229;-72
2022/07/28 03:24:43;;;;;;;14.83;13.43;;;;;;;19.52;100.00;92804.13;5092106;28;20180;-72
2022/07/28 03:27:26;;;;;;;17.03;15.43;;;;;;;19.46;100.00;92794.84;5090971;28;20223;-72
2022/07/28 03:29:55;;;;;;;16.13;14.43;;;;;;;19.53;100.00;92806.47;5091718;28;20266;-73
2022/07/28 03:32:24;;;;;;;14.63;13.27;;;;;;;19.36;100.00;92797.91;5090554;28;20238;-72
2022/07/28 03:34:51;;;;;;;16.60;14.80;;;;;;;19.36;100.00;92803.22;5092265;28;20220;-71
2022/07/28 03:37:22;;;;;;;15.90;14.50;;;;;;;19.32;100.00;92773.16;5083632;28;20237;-72
2022/07/28 03:39:51;;;;;;;16.10;14.70;;;;;;;19.55;100.00;92812.19;5063826;28;20184;-72
2022/07/28 03:42:17;;;;;;;17.43;15.50;;;;;;;19.42;100.00;92805.31;5064745;28;20232;-73
2022/07/28 03:44:45;;;;;;;16.83;15.17;;;;;;;19.56;100.00;92779.31;5070304;28;20180;-73
2022/07/28 03:47:10;;;;;;;15.20;13.90;;;;;;;19.57;100.00;92778.19;5074513;28;20222;-72
2022/07/28 03:49:37;;;;;;;16.70;15.27;;;;;;;19.47;100.00;92769.91;5090895;28;20193;-72
2022/07/28 03:52:03;;;;;;;16.30;14.77;;;;;;;19.16;100.00;92780.94;5090460;28;20215;-73
2022/07/28 03:54:28;;;;;;;14.90;13.70;;;;;;;19.10;100.00;92753.13;5090570;28;20212;-72
2022/07/28 03:56:53;;;;;;;15.17;13.77;;;;;;;19.54;100.00;92762.19;5091038;28;20732;-72
2022/07/28 03:59:20;;;;;;;15.00;13.60;;;;;;;19.22;100.00;92750.53;5090451;28;20183;-72
2022/07/28 04:01:46;;;;;;;16.07;14.77;;;;;;;19.10;100.00;92745.97;5090786;28;20258;-72
2022/07/28 04:04:11;;;;;;;15.27;13.77;;;;;;;19.38;100.00;92730.28;5091161;28;20230;-73
2022/07/28 04:06:36;;;;;;;16.03;14.63;;;;;;;19.38;100.00;92724.97;5091474;28;20224;-73
2022/07/28 04:09:02;;;;;;;15.57;14.17;;;;;;;19.27;99.98;92700.00;5090484;28;20227;-72
2022/07/28 04:11:28;;;;;;;15.03;13.73;;;;;;;19.52;98.85;92704.25;5090401;28;20217;-73
2022/07/28 04:13:55;;;;;;;16.63;15.03;;;;;;;19.60;97.33;92695.44;5090926;28;20223;-73
2022/07/28 04:16:20;;;;;;;15.07;13.70;;;;;;;19.51;98.08;92691.34;5090139;28;20191;-72
2022/07/28 04:18:46;;;;;;;13.57;12.50;;;;;;;19.53;98.48;92678.56;5089274;28;20286;-72
2022/07/28 04:21:12;;;;;;;15.37;13.97;;;;;;;19.55;98.27;92669.16;5091127;28;20171;-73
2022/07/28 04:23:37;;;;;;;11.60;10.80;;;;;;;19.44;94.03;92667.31;5090608;28;20238;-72
2022/07/28 04:26:03;;;;;;;12.63;11.70;;;;;;;19.06;93.42;92657.75;5090949;28;20198;-72
2022/07/28 04:28:28;;;;;;;11.40;10.60;;;;;;;19.13;88.41;92691.59;5090534;28;20257;-72
2022/07/28 04:30:54;;;;;;;10.90;10.07;;;;;;;19.31;88.99;92729.28;5090650;28;20207;-72
2022/07/28 04:33:20;;;;;;;16.90;15.23;;;;;;;19.07;96.57;92737.91;5090596;28;20293;-72
2022/07/28 04:35:45;;;;;;;19.33;16.33;;;;;;;19.06;100.00;92749.59;5091481;28;20185;-72
2022/07/28 04:38:13;;;;;;;21.50;19.37;;;;;;;18.95;100.00;92759.03;5090322;28;20241;-72
2022/07/28 04:40:40;;;;;;;25.23;20.40;;;;;;;18.91;100.00;92781.97;5090707;28;20209;-72
2022/07/28 04:43:06;;;;;;;23.90;21.57;;;;;;;18.92;100.00;92791.44;5089926;28;20238;-72
2022/07/28 04:45:32;;;;;;;24.97;21.27;;;;;;;18.76;100.00;92788.63;5089472;28;20256;-75
2022/07/28 04:47:57;;;;;;;24.10;20.43;;;;;;;18.98;100.00;92816.59;5090229;28;20218;-72
2022/07/28 04:50:22;;;;;;;20.97;18.77;;;;;;;18.86;100.00;92813.91;5086782;28;20190;-67
2022/07/28 04:52:48;;;;;;;21.07;18.87;;;;;;;18.84;100.00;92792.28;5089029;28;20256;-69
2022/07/28 04:55:15;;;;;;;21.10;18.63;;;;;;;19.02;100.00;92798.97;5088857;28;20201;-69
2022/07/28 04:57:40;;;;;;;18.90;17.07;;;;;;;18.80;100.00;92771.00;5087317;28;20257;-68
2022/07/28 05:00:15;;;;;;;18.43;16.50;;;;;;;19.22;100.00;92811.41;5089879;28;20171;-68
2022/07/28 05:02:43;;;;;;;19.33;17.53;;;;;;;19.09;100.00;92788.66;5089891;28;20232;-68
2022/07/28 05:05:08;;;;;;;17.60;15.97;;;;;;;19.06;100.00;92797.25;5089532;28;20193;-69
2022/07/28 05:07:34;;;;;;;18.17;16.63;;;;;;;19.04;100.00;92773.75;5089534;28;20271;-69
2022/07/28 05:10:00;;;;;;;17.10;15.57;;;;;;;19.18;100.00;92778.75;5087528;28;20199;-69
2022/07/28 05:12:25;;;;;;;17.23;15.63;;;;;;;19.21;100.00;92782.63;5087773;28;20233;-68
2022/07/28 05:14:50;;;;;;;16.47;14.10;;;;;;;19.12;100.00;92793.28;5089135;28;20208;-68
2022/07/28 05:17:16;;;;;;;18.17;16.30;;;;;;;18.97;100.00;92789.34;5088153;28;20235;-69
2022/07/28 05:19:41;;;;;;;17.70;15.90;;;;;;;19.52;100.00;92796.19;5089740;28;20284;-68
2022/07/28 05:22:06;;;;;;;21.23;19.03;;;;;;;19.38;100.00;92793.06;5087688;28;20675;-68
2022/07/28 05:24:32;;;;;;;16.00;14.50;;;;;;;19.27;100.00;92795.31;5088946;28;20178;-68
2022/07/28 05:26:57;;;;;;;17.63;15.83;;;;;;;19.45;100.00;92796.72;5088571;28;20190;-68
2022/07/28 05:29:23;;;;;;;17.60;15.70;;;;;;;19.30;100.00;92797.34;5088562;28;20222;-68
2022/07/28 05:31:48;;;;;;;18.03;16.23;;;;;;;19.18;100.00;92779.53;5088123;28;20238;-71
2022/07/28 05:34:14;;;;;;;17.57;15.77;;;;;;;19.30;100.00;92831.75;5088225;28;20221;-70
2022/07/28 05:36:40;;;;;;;17.73;15.80;;;;;;;19.42;100.00;92831.81;5089524;28;20219;-70
2022/07/28 05:39:06;;;;;;;18.17;16.53;;;;;;;19.51;100.00;92842.31;5068704;28;20218;-70
2022/07/28 05:41:31;;;;;;;16.43;14.83;;;;;;;19.69;100.00;92831.19;5069002;28;20206;-71
2022/07/28 05:43:59;;;;;;;17.57;15.87;;;;;;;19.75;100.00;92837.81;5067986;28;20223;-70
2022/07/28 05:46:25;;;;;;;17.43;15.83;;;;;;;19.73;100.00;92818.84;5067787;28;20185;-70
2022/07/28 05:48:50;;;;;;;16.50;14.90;;;;;;;20.22;100.00;92825.75;5084104;28;20242;-69
2022/07/28 05:51:16;;;;;;;17.30;15.70;;;;;;;20.28;98.00;92811.16;5088163;28;20219;-69
2022/07/28 05:53:41;;;;;;;17.20;15.67;;;;;;;20.51;97.55;92819.44;5087547;28;20295;-69
2022/07/28 05:56:06;;;;;;;16.53;15.13;;;;;;;20.38;95.82;92807.28;5086584;28;20217;-70
2022/07/28 05:58:32;;;;;;;17.27;14.97;;;;;;;20.23;98.05;92807.97;5088425;28;20231;-70
2022/07/28 06:00:59;;;;;;;18.53;16.67;;;;;;;20.31;97.08;92799.88;5088905;28;20191;-69
2022/07/28 06:03:24;;;;;;;17.20;15.50;;;;;;;20.73;93.28;92810.22;5087482;28;20229;-70
2022/07/28 06:05:53;;;;;;;16.38;14.65;;;;;;;21.17;91.82;92819.84;5088366;28;20221;-69
2022/07/28 06:08:18;;;;;;;17.27;15.48;;;;;;;21.41;89.31;92809.13;5087278;28;20909;-69
2022/07/28 06:11:00;;;;;;;15.48;14.07;;;;;;;21.64;89.91;92818.84;5088616;28;20226;-70
2022/07/28 06:13:27;;;;;;;16.95;14.95;;;;;;;21.91;88.02;92817.28;5083201;28;20223;-69
2022/07/28 06:15:53;;;;;;;19.52;17.60;;;;;;;21.78;85.70;92807.81;5078607;28;20188;-70
2022/07/28 06:18:19;;;;;;;18.33;16.55;;;;;;;22.12;85.02;92828.41;5080416;28;20235;-70
2022/07/28 06:20:45;;;;;;;15.65;14.23;;;;;;;22.08;85.08;92827.56;5085856;28;20191;-68
2022/07/28 06:23:11;;;;;;;15.80;14.40;;;;;;;21.88;84.29;92807.31;5088096;28;20237;-69
2022/07/28 06:25:37;;;;;;;16.13;14.80;;;;;;;21.89;88.50;92803.53;5087448;28;20187;-69
2022/07/28 06:28:03;;;;;;;16.33;14.82;;;;;;;22.38;86.23;92826.00;5089666;28;20283;-69
2022/07/28 06:30:29;;;;;;;17.08;15.27;;;;;;;22.47;84.60;92807.97;5089451;28;20202;-69
2022/07/28 06:32:55;;;;;;;16.48;14.93;;;;;;;23.03;83.85;92830.50;5088722;28;20229;-69
2022/07/28 06:35:21;;;;;;;14.85;13.35;;;;;;;23.11;81.90;92837.53;5087204;28;20191;-69
2022/07/28 06:37:49;;;;;;;15.57;14.13;;;;;;;23.13;82.20;92819.28;5088477;28;20223;-71
2022/07/28 06:40:18;;;;;;;16.25;14.85;;;;;;;23.95;77.89;92818.94;5087934;28;20210;-69
2022/07/28 06:42:44;;;;;;;14.77;13.43;;;;;;;24.10;75.79;92813.50;5087763;28;20217;-69
2022/07/28 06:45:11;;;;;;;14.55;13.25;;;;;;;23.87;74.67;92814.59;5087497;28;20191;-72
2022/07/28 06:47:37;;;;;;;15.02;13.63;;;;;;;24.68;72.61;92817.50;5087947;28;20256;-70
2022/07/28 06:50:03;;;;;;;16.23;14.77;;;;;;;24.89;69.97;92828.47;5087841;28;20235;-71
2022/07/28 06:52:29;;;;;;;14.35;13.05;;;;;;;25.13;67.65;92827.25;5087477;28;20295;-71
2022/07/28 06:54:54;;;;;;;14.82;13.43;;;;;;;24.72;69.17;92806.84;5088247;28;20184;-71
2022/07/28 06:57:21;;;;;;;16.10;14.55;;;;;;;23.96;73.43;92829.28;5081034;28;20223;-72
2022/07/28 06:59:49;;;;;;;16.20;14.70;;;;;;;24.73;68.96;92824.44;5065452;28;20212;-72
2022/07/28 07:02:16;;;;;;;15.30;13.90;;;;;;;24.89;68.86;92838.38;5066593;28;20298;-71
2022/07/28 07:04:42;;;;;;;15.48;13.88;;;;;;;25.13;68.74;92838.72;5067321;28;20211;-72
2022/07/28 07:07:08;;;;;;;15.95;14.35;;;;;;;25.20;67.40;92838.81;5066669;28;20217;-73
2022/07/28 07:09:33;;;;;;;15.38;14.00;;;;;;;25.16;66.69;92843.34;5067367;28;20184;-73
2022/07/28 07:11:59;;;;;;;16.17;14.38;;;;;;;24.59;69.14;92837.53;5065896;28;20220;-73
2022/07/28 07:14:24;;;;;;;16.38;14.77;;;;;;;24.45;70.03;92834.66;5065906;28;20194;-72
2022/07/28 07:16:50;;;;;;;15.70;14.10;;;;;;;24.22;70.17;92845.34;5067775;28;20192;-73
2022/07/28 07:19:16;;;;;;;17.42;14.10;;;;;;;23.94;71.83;92836.06;5065672;28;20217;-71
2022/07/28 07:21:41;;;;;;;15.63;14.13;;;;;;;24.19;71.85;92837.31;5071104;28;20201;-74
2022/07/28 07:24:07;;;;;;;16.73;15.32;;;;;;;23.85;71.29;92796.28;5070856;28;20222;-73
2022/07/28 07:26:33;;;;;;;15.60;14.30;;;;;;;23.91;72.96;92839.47;5071751;28;20184;-73
2022/07/28 07:28:58;;;;;;;17.02;15.43;;;;;;;23.58;75.37;92846.09;5069939;28;20235;-73
2022/07/28 07:31:24;;;;;;;16.42;14.75;;;;;;;23.66;75.82;92831.00;5069741;28;20244;-73
2022/07/28 07:33:49;;;;;;;16.75;15.05;;;;;;;23.66;75.03;92831.00;5085947;28;20223;-74
2022/07/28 07:36:14;;;;;;;19.92;16.42;;;;;;;23.85;74.74;92844.28;5091565;28;20188;-73
2022/07/28 07:38:40;;;;;;;23.05;15.75;;;;;;;23.82;76.08;92844.22;5090780;28;20220;-74
2022/07/28 07:41:05;;;;;;;17.35;15.65;;;;;;;23.97;75.09;92856.75;5090568;28;20188;-74
2022/07/28 07:43:31;;;;;;;17.98;15.77;;;;;;;23.50;75.00;92847.06;5089564;28;20235;-75
2022/07/28 07:45:56;;;;;;;17.63;15.93;;;;;;;23.64;77.05;92866.00;5090788;28;20216;-74
2022/07/28 07:48:21;;;;;;;19.13;17.17;;;;;;;23.71;74.60;92866.16;5089983;28;20219;-72
2022/07/28 07:50:47;;;;;;;17.30;15.52;;;;;;;23.62;74.41;92878.94;5089313;28;20207;-73
2022/07/28 07:53:12;;;;;;;17.33;15.68;;;;;;;23.36;75.48;92870.78;5089438;28;20241;-73
2022/07/28 07:55:38;;;;;;;17.35;15.68;;;;;;;23.38;77.16;92879.22;5091122;28;20210;-73
2022/07/28 07:58:03;;;;;;;18.05;16.23;;;;;;;23.36;75.64;92876.13;5079618;28;20259;-72
2022/07/28 08:00:29;;;;;;;18.58;15.95;;;;;;;23.68;75.18;92888.19;5070270;28;20197;-71
2022/07/28 08:02:54;;;;;;;17.73;15.82;;;;;;;23.53;74.83;92882.94;5069743;28;20284;-71
2022/07/28 08:05:20;;;;;;;21.42;16.13;;;;;;;23.91;73.14;92879.47;5070539;28;20195;-73
2022/07/28 08:07:45;;;;;;;18.13;16.33;;;;;;;23.71;72.75;92895.47;5076692;28;20260;-73
2022/07/28 08:10:11;;;;;;;18.60;16.67;;;;;;;23.80;73.61;92895.25;5090444;28;20213;-73
2022/07/28 08:12:36;;;;;;;19.90;17.88;;;;;;;22.89;76.61;92894.13;5088186;28;20236;-71
2022/07/28 08:15:03;;;;;;;20.52;18.25;;;;;;;23.19;77.11;92902.38;5089867;28;20194;-69
2022/07/28 08:17:28;;;;;;;18.52;16.55;;;;;;;23.27;75.13;92862.22;5089166;28;20230;-70
2022/07/28 08:19:54;;;;;;;19.48;17.50;;;;;;;23.49;76.50;92896.19;5089688;28;20187;-71
2022/07/28 08:22:20;;;;;;;21.90;17.92;;;;;;;23.57;73.37;92895.22;5088334;28;20252;-70
2022/07/28 08:24:45;;;;;;;18.52;16.73;;;;;;;23.57;74.14;92897.09;5089391;28;20200;-72
2022/07/28 08:27:10;;;;;;;19.80;16.95;;;;;;;23.25;75.68;92893.78;5086396;28;20242;-70
2022/07/28 08:29:36;;;;;;;20.00;17.70;;;;;;;23.27;75.35;92883.53;5068681;28;20225;-72
2022/07/28 08:32:02;;;;;;;18.95;16.85;;;;;;;23.27;74.90;92890.78;5068884;28;20212;-71
2022/07/28 08:34:31;;;;;;;18.55;16.58;;;;;;;23.17;75.03;92916.06;5068913;28;20187;-71
2022/07/28 08:36:57;;;;;;;19.15;16.98;;;;;;;23.10;76.60;92910.56;5070064;28;20188;-71
2022/07/28 08:39:22;;;;;;;18.85;16.65;;;;;;;22.96;77.03;92904.91;5069728;28;20356;-72
2022/07/28 08:41:58;;;;;;;21.60;16.92;;;;;;;23.24;74.70;92913.53;5069918;28;20205;-72
2022/07/28 08:44:29;;;;;;;19.42;17.10;;;;;;;23.08;76.52;92918.13;5068787;28;20211;-73
2022/07/28 08:46:56;;;;;;;19.38;17.25;;;;;;;23.08;76.82;92902.13;5068601;28;20202;-72
2022/07/28 08:49:21;;;;;;;20.17;17.83;;;;;;;23.03;76.87;92913.09;5068642;28;20192;-71
2022/07/28 08:51:48;;;;;;;18.98;17.02;;;;;;;23.31;76.97;92921.72;5067984;28;20335;-72
2022/07/28 08:54:26;;;;;;;23.65;17.25;;;;;;;23.50;75.53;92921.72;5068502;28;20280;-73
2022/07/28 08:56:51;;;;;;;19.88;17.92;;;;;;;23.83;74.82;92920.47;5067687;28;20196;-72
2022/07/28 08:59:17;;;;;;;20.27;17.80;;;;;;;23.80;74.35;92935.25;5087018;28;20258;-72
2022/07/28 09:01:43;;;;;;;20.45;18.35;;;;;;;23.72;72.80;92929.00;5089582;28;20202;-72
2022/07/28 09:04:09;;;;;;;19.40;17.38;;;;;;;23.82;73.22;92942.91;5088408;28;20274;-72
2022/07/28 09:06:40;;;;;;;21.25;18.08;;;;;;;23.93;72.79;92941.22;5089865;28;20194;-72
2022/07/28 09:09:08;;;;;;;20.55;18.45;;;;;;;23.55;75.34;92937.44;5088075;28;20242;-73
2022/07/28 09:11:34;;;;;;;20.25;18.15;;;;;;;23.39;74.58;92939.38;5088997;28;20207;-72
2022/07/28 09:13:59;;;;;;;22.90;19.25;;;;;;;23.48;78.45;92921.31;5088731;28;20253;-72
2022/07/28 09:16:25;;;;;;;21.13;19.00;;;;;;;23.80;74.62;92921.91;5089978;28;20202;-73
2022/07/28 09:18:50;;;;;;;23.55;18.85;;;;;;;24.10;74.03;92920.22;5086831;28;20242;-73
2022/07/28 09:21:16;;;;;;;18.30;16.33;;;;;;;24.38;72.60;92919.94;5088752;28;20179;-72
2022/07/28 09:23:44;;;;;;;19.85;17.73;;;;;;;23.46;74.22;92918.22;5071766;28;20243;-72
2022/07/28 09:26:10;;;;;;;20.42;18.35;;;;;;;23.61;74.59;92933.34;5069105;28;20199;-73
2022/07/28 09:28:50;;;;;;;18.40;16.52;;;;;;;24.00;74.25;92930.72;5068294;28;20247;-71
2022/07/28 09:31:16;;;;;;;20.77;18.20;;;;;;;24.03;72.14;92920.13;5068289;28;20205;-73
2022/07/28 09:34:02;;;;;;;20.15;18.02;;;;;;;23.54;75.55;92919.91;5067354;28;20252;-72
2022/07/28 09:36:29;;;;;;;20.67;18.52;;;;;;;22.68;76.82;92922.16;5068050;28;20220;-71
2022/07/28 09:38:55;;;;;;;22.05;17.73;;;;;;;23.25;76.10;92928.41;5068502;28;20236;-73
2022/07/28 09:41:21;;;;;;;22.73;19.17;;;;;;;23.08;76.53;92922.69;5068480;28;20183;-71
2022/07/28 09:43:48;;;;;;;20.00;17.02;;;;;;;23.90;75.10;92931.25;5067695;28;20232;-72
2022/07/28 09:46:19;;;;;;;22.15;19.02;;;;;;;24.16;69.40;92931.38;5064814;28;20188;-71
2022/07/28 09:48:47;;;;;;;23.02;19.08;;;;;;;24.40;70.92;92936.41;5067335;28;20267;-72
2022/07/28 09:51:15;;;;;;;21.45;19.15;;;;;;;24.14;71.74;92933.66;5068082;28;20200;-73
2022/07/28 09:53:41;;;;;;;21.27;19.05;;;;;;;24.49;71.04;92931.59;5068113;28;20235;-74
2022/07/28 09:56:07;;;;;;;21.90;18.98;;;;;;;25.01;68.13;92921.00;5068139;28;20210;-71
2022/07/28 09:58:33;;;;;;;23.20;20.35;;;;;;;25.20;66.53;92923.56;5065739;28;20224;-71
2022/07/28 10:01:05;;;;;;;21.10;18.58;;;;;;;24.02;69.97;92907.88;5067948;28;20264;-73
2022/07/28 10:03:31;;;;;;;21.95;18.08;;;;;;;25.25;69.47;92926.69;5080179;28;20278;-72
2022/07/28 10:05:57;;;;;;;22.50;17.30;;;;;;;25.02;71.59;92917.97;5087738;28;20248;-72
2022/07/28 10:08:44;;;;;;;22.17;19.08;;;;;;;24.27;70.49;92927.00;5088201;28;20230;-72
2022/07/28 10:11:11;;;;;;;20.25;18.30;;;;;;;24.62;68.21;92925.69;5087960;28;20203;-72
2022/07/28 10:13:59;;;;;;;19.25;17.38;;;;;;;24.10;69.48;92935.47;5086681;28;20242;-72
2022/07/28 10:16:30;;;;;;;19.10;17.13;;;;;;;24.86;67.96;92924.56;5087771;28;20175;-71
2022/07/28 10:18:58;;;;;;;19.27;17.25;;;;;;;25.20;68.03;92923.56;5087900;28;20313;-73
2022/07/28 10:21:24;;;;;;;19.05;17.23;;;;;;;25.58;65.58;92925.22;5086749;28;20222;-74
2022/07/28 10:23:53;;;;;;;19.35;17.40;;;;;;;25.40;64.81;92919.69;5086345;28;20229;-71
2022/07/28 10:26:23;;;;;;;23.55;17.30;;;;;;;25.17;65.77;92926.94;5087601;28;20246;-73
2022/07/28 10:28:50;;;;;;;21.60;18.73;;;;;;;25.38;65.36;92924.59;5086352;28;20243;-72
2022/07/28 10:31:32;;;;;;;20.27;18.23;;;;;;;25.54;65.96;92914.50;5087885;28;20223;-71
2022/07/28 10:33:58;;;;;;;20.30;18.02;;;;;;;25.50;66.06;92921.72;5086334;28;20306;-71
2022/07/28 10:36:25;;;;;;;24.38;19.70;;;;;;;25.62;65.32;92923.38;5087206;28;20207;-70
2022/07/28 10:38:58;;;;;;;22.88;19.60;;;;;;;25.13;68.03;92923.47;5087915;28;21259;-72
2022/07/28 10:41:27;;;;;;;21.55;18.73;;;;;;;25.16;68.42;92912.84;5086216;28;21230;-70
2022/07/28 10:43:54;;;;;;;22.85;18.30;;;;;;;25.38;69.40;92921.94;5086857;28;20248;-71
2022/07/28 10:46:20;;;;;;;19.55;16.98;;;;;;;24.87;68.63;92918.13;5087061;28;20207;-72
2022/07/28 10:48:46;;;;;;;21.42;18.25;;;;;;;25.26;68.73;92896.16;5087180;28;20216;-72
2022/07/28 10:51:12;;;;;;;21.10;18.95;;;;;;;25.57;69.00;92900.41;5086777;28;20212;-71
2022/07/28 10:54:00;;;;;;;19.85;17.83;;;;;;;25.76;66.78;92912.88;5090086;28;20235;-70
2022/07/28 10:56:46;;;;;;;21.13;19.02;;;;;;;25.26;67.49;92901.50;5091176;28;20201;-71
2022/07/28 10:59:54;;;;;;;20.00;17.90;;;;;;;25.37;67.27;92900.91;5090103;28;20219;-71
2022/07/28 11:02:52;;;;;;;19.83;17.77;;;;;;;25.66;69.30;92900.13;5082858;28;20236;-71
2022/07/28 11:05:30;;;;;;;22.77;18.38;;;;;;;25.78;67.12;92895.31;5091820;28;20188;-72
2022/07/28 11:08:00;;;;;;;20.17;18.08;;;;;;;26.02;64.01;92894.84;5081416;28;20215;-72
2022/07/28 11:10:27;;;;;;;19.73;17.63;;;;;;;26.00;63.98;92893.66;5071441;28;20193;-70
2022/07/28 11:12:55;;;;;;;21.75;17.40;;;;;;;26.36;63.01;92887.50;5069951;28;20227;-73
2022/07/28 11:15:34;;;;;;;18.50;16.80;;;;;;;26.51;64.12;92879.22;5070330;28;20181;-72
2022/07/28 11:18:04;;;;;;;20.25;18.05;;;;;;;26.76;61.78;92882.13;5079763;28;20232;-72
2022/07/28 11:20:57;;;;;;;19.95;16.95;;;;;;;27.08;61.06;92879.66;5091181;28;20204;-73
2022/07/28 11:23:45;;;;;;;18.63;16.77;;;;;;;27.02;59.70;92867.75;5089227;28;20225;-72